createdAt,value
2018-03-19T00:00:32.998Z,992.77
2018-03-19T00:01:38.949Z,992.74
2018-03-19T00:02:44.380Z,992.75
2018-03-19T00:03:50.373Z,992.72
2018-03-19T00:04:56.810Z,992.72
2018-03-19T00:06:02.249Z,992.77
2018-03-19T00:07:08.265Z,992.76
2018-03-19T00:08:14.719Z,992.76
2018-03-19T00:09:20.216Z,992.74
2018-03-19T00:10:26.595Z,992.76
2018-03-19T00:11:32.573Z,992.76
2018-03-19T00:12:38.546Z,992.77
2018-03-19T00:13:43.974Z,992.76
2018-03-19T00:14:50.944Z,992.75
2018-03-19T00:15:56.434Z,992.78
2018-03-19T00:17:02.401Z,992.73
2018-03-19T00:18:08.406Z,992.75
2018-03-19T00:19:14.320Z,992.78
2018-03-19T00:20:20.325Z,992.73
2018-03-19T00:21:25.694Z,992.73
2018-03-19T00:22:31.690Z,992.74
2018-03-19T00:23:37.627Z,992.71
2018-03-19T00:24:44.092Z,992.75
2018-03-19T00:26:55.510Z,992.77
2018-03-19T00:28:01.503Z,992.70
2018-03-19T00:29:07.817Z,992.70
2018-03-19T00:30:13.452Z,992.70
2018-03-19T00:31:19.868Z,992.72
2018-03-19T00:32:25.350Z,992.74
2018-03-19T00:33:31.811Z,992.66
2018-03-19T00:34:37.234Z,992.68
2018-03-19T00:35:43.703Z,992.69
2018-03-19T00:36:49.740Z,992.66
2018-03-19T00:37:55.133Z,992.67
2018-03-19T00:39:01.574Z,992.65
2018-03-19T00:40:07.505Z,992.65
2018-03-19T00:41:13.502Z,992.67
2018-03-19T00:42:18.945Z,992.65
2018-03-19T00:43:25.429Z,992.60
2018-03-19T00:44:31.362Z,992.62
2018-03-19T00:45:37.371Z,992.59
2018-03-19T00:46:43.297Z,992.58
2018-03-19T00:47:49.258Z,992.60
2018-03-19T00:48:55.259Z,992.55
2018-03-19T00:50:01.161Z,992.53
2018-03-19T00:51:07.120Z,992.51
2018-03-19T00:52:13.059Z,992.55
2018-03-19T00:53:19.085Z,992.55
2018-03-19T00:54:24.516Z,992.54
2018-03-19T00:55:30.977Z,992.55
2018-03-19T00:56:36.935Z,992.49
2018-03-19T00:57:42.425Z,992.51
2018-03-19T00:58:48.854Z,992.50
2018-03-19T00:59:54.327Z,992.47
2018-03-19T01:01:00.732Z,992.50
2018-03-19T01:02:06.689Z,992.54
2018-03-19T01:03:12.166Z,992.50
2018-03-19T01:04:19.120Z,992.53
2018-03-19T01:05:24.592Z,992.51
2018-03-19T01:06:30.497Z,992.52
2018-03-19T01:07:36.527Z,992.53
2018-03-19T01:08:41.927Z,992.49
2018-03-19T01:09:48.446Z,992.51
2018-03-19T01:10:54.365Z,992.51
2018-03-19T01:12:00.308Z,992.51
2018-03-19T01:13:06.272Z,992.52
2018-03-19T01:14:12.217Z,992.52
2018-03-19T01:15:18.193Z,992.50
2018-03-19T01:16:23.646Z,992.51
2018-03-19T01:17:30.073Z,992.46
2018-03-19T01:18:36.033Z,992.46
2018-03-19T01:20:47.975Z,992.45
2018-03-19T01:21:53.958Z,992.47
2018-03-19T01:22:59.980Z,992.47
2018-03-19T01:24:05.304Z,992.44
2018-03-19T01:25:11.790Z,992.45
2018-03-19T01:26:17.223Z,992.47
2018-03-19T01:27:23.172Z,992.43
2018-03-19T01:28:29.144Z,992.46
2018-03-19T01:29:35.127Z,992.44
2018-03-19T01:30:41.557Z,992.44
2018-03-19T01:31:46.988Z,992.41
2018-03-19T01:32:52.951Z,992.41
2018-03-19T01:33:58.899Z,992.40
2018-03-19T01:35:04.904Z,992.42
2018-03-19T01:36:11.307Z,992.43
2018-03-19T01:37:16.769Z,992.42
2018-03-19T01:38:22.733Z,992.40
2018-03-19T01:39:29.206Z,992.41
2018-03-19T01:40:35.161Z,992.40
2018-03-19T01:41:40.611Z,992.39
2018-03-19T01:42:47.064Z,992.36
2018-03-19T01:43:53.003Z,992.40
2018-03-19T01:44:58.952Z,992.37
2018-03-19T01:46:04.985Z,992.35
2018-03-19T01:47:10.386Z,992.37
2018-03-19T01:48:16.352Z,992.32
2018-03-19T01:49:22.785Z,992.31
2018-03-19T01:50:28.759Z,992.31
2018-03-19T01:51:34.717Z,992.28
2018-03-19T01:52:40.669Z,992.34
2018-03-19T01:53:46.619Z,992.34
2018-03-19T01:54:52.551Z,992.36
2018-03-19T01:55:58.535Z,992.38
2018-03-19T01:57:04.473Z,992.37
2018-03-19T01:58:09.919Z,992.37
2018-03-19T01:59:15.952Z,992.37
2018-03-19T02:00:22.320Z,992.35
2018-03-19T02:01:28.291Z,992.37
2018-03-19T02:02:42.656Z,992.38
2018-03-19T02:03:48.984Z,992.36
2018-03-19T02:04:54.400Z,992.38
2018-03-19T02:06:00.353Z,992.36
2018-03-19T02:07:06.350Z,992.34
2018-03-19T02:08:11.785Z,992.36
2018-03-19T02:09:18.235Z,992.34
2018-03-19T02:10:24.234Z,992.38
2018-03-19T02:11:29.688Z,992.33
2018-03-19T02:12:36.105Z,992.34
2018-03-19T02:13:42.038Z,992.34
2018-03-19T02:14:48.039Z,992.34
2018-03-19T02:15:53.443Z,992.32
2018-03-19T02:16:59.459Z,992.36
2018-03-19T02:18:05.935Z,992.37
2018-03-19T02:19:11.800Z,992.36
2018-03-19T02:20:17.752Z,992.35
2018-03-19T02:21:24.746Z,992.34
2018-03-19T02:22:29.703Z,992.34
2018-03-19T02:23:35.650Z,992.35
2018-03-19T02:24:41.581Z,992.32
2018-03-19T02:25:48.514Z,992.30
2018-03-19T02:26:53.506Z,992.25
2018-03-19T02:27:59.445Z,992.28
2018-03-19T02:29:04.911Z,992.30
2018-03-19T02:30:11.334Z,992.24
2018-03-19T02:31:16.790Z,992.28
2018-03-19T02:32:23.262Z,992.23
2018-03-19T02:33:29.186Z,992.26
2018-03-19T02:34:35.159Z,992.24
2018-03-19T02:35:41.123Z,992.25
2018-03-19T02:36:47.056Z,992.24
2018-03-19T02:37:53.043Z,992.27
2018-03-19T02:38:58.969Z,992.28
2018-03-19T02:40:04.933Z,992.28
2018-03-19T02:41:10.394Z,992.30
2018-03-19T02:42:16.335Z,992.27
2018-03-19T02:43:22.323Z,992.33
2018-03-19T02:44:28.263Z,992.34
2018-03-19T02:45:34.692Z,992.29
2018-03-19T02:46:40.149Z,992.29
2018-03-19T02:47:46.622Z,992.33
2018-03-19T02:48:52.044Z,992.31
2018-03-19T02:49:58.485Z,992.32
2018-03-19T02:51:04.433Z,992.30
2018-03-19T02:52:10.384Z,992.34
2018-03-19T02:53:16.364Z,992.32
2018-03-19T02:54:22.289Z,992.35
2018-03-19T02:55:27.753Z,992.35
2018-03-19T02:56:34.191Z,992.36
2018-03-19T02:57:39.681Z,992.33
2018-03-19T02:58:45.627Z,992.32
2018-03-19T02:59:52.092Z,992.34
2018-03-19T03:00:57.987Z,992.36
2018-03-19T03:02:03.966Z,992.41
2018-03-19T03:03:09.959Z,992.34
2018-03-19T03:04:15.950Z,992.37
2018-03-19T03:05:21.824Z,992.46
2018-03-19T03:06:27.269Z,992.45
2018-03-19T03:07:34.693Z,992.42
2018-03-19T03:08:39.673Z,992.49
2018-03-19T03:09:45.609Z,992.45
2018-03-19T03:10:51.568Z,992.47
2018-03-19T03:11:57.499Z,992.52
2018-03-19T03:13:03.447Z,992.44
2018-03-19T03:14:09.417Z,992.45
2018-03-19T03:15:15.343Z,992.47
2018-03-19T03:16:21.326Z,992.45
2018-03-19T03:17:27.270Z,992.45
2018-03-19T03:18:33.221Z,992.47
2018-03-19T03:19:39.157Z,992.43
2018-03-19T03:20:45.119Z,992.46
2018-03-19T03:21:51.051Z,992.50
2018-03-19T03:22:57.993Z,992.48
2018-03-19T03:24:02.953Z,992.48
2018-03-19T03:25:09.466Z,992.47
2018-03-19T03:26:14.353Z,992.47
2018-03-19T03:27:20.776Z,992.49
2018-03-19T03:28:26.749Z,992.51
2018-03-19T03:29:32.768Z,992.52
2018-03-19T03:30:38.157Z,992.51
2018-03-19T03:31:44.606Z,992.54
2018-03-19T03:32:50.524Z,992.54
2018-03-19T03:33:55.990Z,992.56
2018-03-19T03:35:01.959Z,992.55
2018-03-19T03:36:08.389Z,992.54
2018-03-19T03:37:13.831Z,992.52
2018-03-19T03:38:20.283Z,992.51
2018-03-19T03:39:26.220Z,992.52
2018-03-19T03:40:32.185Z,992.53
2018-03-19T03:41:38.092Z,992.53
2018-03-19T03:42:44.043Z,992.54
2018-03-19T03:43:51.031Z,992.55
2018-03-19T03:44:56.500Z,992.52
2018-03-19T03:46:02.890Z,992.54
2018-03-19T03:47:07.931Z,992.49
2018-03-19T03:48:13.808Z,992.54
2018-03-19T03:49:19.731Z,992.49
2018-03-19T03:50:25.224Z,992.52
2018-03-19T03:51:31.679Z,992.51
2018-03-19T03:52:37.576Z,992.49
2018-03-19T03:53:43.568Z,992.47
2018-03-19T03:54:49.471Z,992.52
2018-03-19T03:55:55.459Z,992.50
2018-03-19T03:57:01.352Z,992.52
2018-03-19T03:58:06.791Z,992.53
2018-03-19T03:59:13.224Z,992.51
2018-03-19T04:00:20.204Z,992.51
2018-03-19T04:01:25.126Z,992.52
2018-03-19T04:02:30.593Z,992.54
2018-03-19T04:03:37.004Z,992.51
2018-03-19T04:04:42.466Z,992.49
2018-03-19T04:05:48.427Z,992.52
2018-03-19T04:06:54.871Z,992.51
2018-03-19T04:08:00.833Z,992.55
2018-03-19T04:09:06.752Z,992.55
2018-03-19T04:10:12.684Z,992.53
2018-03-19T04:11:18.658Z,992.54
2018-03-19T04:12:24.577Z,992.57
2018-03-19T04:13:30.555Z,992.54
2018-03-19T04:14:36.453Z,992.54
2018-03-19T04:15:41.946Z,992.56
2018-03-19T04:16:47.957Z,992.58
2018-03-19T04:17:54.324Z,992.60
2018-03-19T04:18:59.740Z,992.57
2018-03-19T04:20:06.195Z,992.58
2018-03-19T04:21:11.637Z,992.60
2018-03-19T04:22:18.089Z,992.57
2018-03-19T04:23:24.016Z,992.59
2018-03-19T04:24:29.463Z,992.58
2018-03-19T04:25:35.395Z,992.58
2018-03-19T04:26:41.960Z,992.63
2018-03-19T04:27:47.279Z,992.62
2018-03-19T04:28:53.722Z,992.64
2018-03-19T04:29:59.673Z,992.63
2018-03-19T04:31:05.618Z,992.65
2018-03-19T04:32:11.569Z,992.66
2018-03-19T04:33:17.510Z,992.68
2018-03-19T04:34:23.453Z,992.65
2018-03-19T04:35:28.890Z,992.66
2018-03-19T04:36:35.375Z,992.65
2018-03-19T04:37:41.244Z,992.63
2018-03-19T04:38:47.191Z,992.66
2018-03-19T04:39:53.158Z,992.68
2018-03-19T04:40:59.093Z,992.67
2018-03-19T04:42:05.082Z,992.69
2018-03-19T04:43:10.951Z,992.70
2018-03-19T04:44:16.461Z,992.67
2018-03-19T04:45:22.341Z,992.71
2018-03-19T04:46:28.301Z,992.68
2018-03-19T04:47:34.761Z,992.69
2018-03-19T04:48:40.145Z,992.68
2018-03-19T04:49:46.063Z,992.71
2018-03-19T04:50:52.008Z,992.70
2018-03-19T04:51:58.457Z,992.75
2018-03-19T04:53:04.438Z,992.72
2018-03-19T04:54:09.823Z,992.73
2018-03-19T04:55:15.848Z,992.71
2018-03-19T04:56:22.180Z,992.74
2018-03-19T04:57:28.171Z,992.74
2018-03-19T04:58:34.069Z,992.70
2018-03-19T04:59:39.989Z,992.76
2018-03-19T05:00:45.928Z,992.75
2018-03-19T05:01:51.936Z,992.81
2018-03-19T05:02:57.906Z,992.83
2018-03-19T05:04:03.710Z,992.79
2018-03-19T05:05:09.648Z,992.83
2018-03-19T05:06:15.649Z,992.83
2018-03-19T05:07:21.031Z,992.84
2018-03-19T05:08:27.468Z,992.85
2018-03-19T05:09:33.371Z,992.87
2018-03-19T05:10:38.823Z,992.82
2018-03-19T05:11:45.239Z,992.86
2018-03-19T05:12:51.228Z,992.79
2018-03-19T05:13:57.100Z,992.77
2018-03-19T05:15:03.084Z,992.85
2018-03-19T05:16:08.958Z,992.81
2018-03-19T05:17:14.409Z,992.83
2018-03-19T05:18:20.353Z,992.82
2018-03-19T05:19:26.775Z,992.84
2018-03-19T05:20:32.646Z,992.83
2018-03-19T05:21:38.641Z,992.89
2018-03-19T05:22:44.970Z,992.88
2018-03-19T05:23:49.971Z,992.89
2018-03-19T05:24:56.364Z,992.85
2018-03-19T05:26:02.296Z,992.88
2018-03-19T05:27:08.198Z,992.91
2018-03-19T05:28:14.174Z,992.89
2018-03-19T05:29:20.934Z,992.87
2018-03-19T05:30:26.000Z,992.84
2018-03-19T05:31:31.402Z,992.93
2018-03-19T05:32:37.342Z,992.94
2018-03-19T05:33:43.800Z,992.96
2018-03-19T05:34:49.725Z,992.95
2018-03-19T05:35:55.104Z,992.96
2018-03-19T05:37:01.029Z,992.98
2018-03-19T05:38:07.448Z,992.99
2018-03-19T05:39:13.390Z,993.02
2018-03-19T05:40:18.778Z,993.04
2018-03-19T05:41:25.678Z,993.07
2018-03-19T05:42:31.640Z,993.02
2018-03-19T05:43:37.023Z,993.09
2018-03-19T05:44:42.653Z,993.11
2018-03-19T05:45:48.384Z,993.09
2018-03-19T05:46:55.815Z,993.09
2018-03-19T05:48:00.732Z,993.13
2018-03-19T05:49:06.630Z,993.09
2018-03-19T05:50:12.548Z,993.09
2018-03-19T05:51:18.473Z,993.10
2018-03-19T05:52:24.385Z,993.13
2018-03-19T05:53:30.314Z,993.15
2018-03-19T05:54:36.256Z,993.16
2018-03-19T05:55:43.142Z,993.18
2018-03-19T05:56:47.587Z,993.21
2018-03-19T05:57:54.090Z,993.21
2018-03-19T05:58:59.951Z,993.22
2018-03-19T06:00:06.884Z,993.23
2018-03-19T06:01:11.810Z,993.25
2018-03-19T06:02:17.686Z,993.23
2018-03-19T06:03:23.629Z,993.26
2018-03-19T06:04:29.560Z,993.27
2018-03-19T06:05:35.499Z,993.22
2018-03-19T06:06:41.377Z,993.27
2018-03-19T06:07:47.323Z,993.24
2018-03-19T06:08:53.255Z,993.24
2018-03-19T06:09:58.668Z,993.23
2018-03-19T06:11:04.645Z,993.21
2018-03-19T06:12:10.519Z,993.27
2018-03-19T06:13:16.931Z,993.29
2018-03-19T06:14:22.392Z,993.30
2018-03-19T06:15:28.838Z,993.34
2018-03-19T06:16:34.744Z,993.30
2018-03-19T06:17:40.183Z,993.31
2018-03-19T06:18:46.568Z,993.31
2018-03-19T06:19:52.008Z,993.37
2018-03-19T06:20:58.470Z,993.38
2018-03-19T06:22:04.382Z,993.38
2018-03-19T06:23:09.801Z,993.38
2018-03-19T06:24:15.737Z,993.37
2018-03-19T06:25:21.664Z,993.38
2018-03-19T06:26:28.104Z,993.39
2018-03-19T06:27:33.526Z,993.39
2018-03-19T06:28:39.464Z,993.41
2018-03-19T06:29:45.934Z,993.38
2018-03-19T06:30:51.902Z,993.47
2018-03-19T06:31:57.836Z,993.49
2018-03-19T06:33:03.718Z,993.42
2018-03-19T06:34:09.198Z,993.43
2018-03-19T06:35:15.690Z,993.52
2018-03-19T06:36:21.050Z,993.47
2018-03-19T06:37:27.453Z,993.51
2018-03-19T06:38:32.903Z,993.49
2018-03-19T06:39:38.843Z,993.50
2018-03-19T06:40:44.803Z,993.53
2018-03-19T06:41:51.320Z,993.53
2018-03-19T06:42:56.785Z,993.55
2018-03-19T06:44:03.120Z,993.57
2018-03-19T06:45:09.064Z,993.56
2018-03-19T06:46:15.009Z,993.59
2018-03-19T06:47:20.466Z,993.62
2018-03-19T06:48:26.393Z,993.55
2018-03-19T06:49:32.901Z,993.56
2018-03-19T06:50:38.290Z,993.58
2018-03-19T06:51:44.787Z,993.59
2018-03-19T06:52:50.250Z,993.64
2018-03-19T06:53:56.652Z,993.60
2018-03-19T06:55:02.601Z,993.60
2018-03-19T06:56:08.598Z,993.61
2018-03-19T06:57:14.079Z,993.64
2018-03-19T06:58:20.455Z,993.59
2018-03-19T06:59:26.447Z,993.61
2018-03-19T07:00:32.458Z,993.66
2018-03-19T07:01:37.956Z,993.63
2018-03-19T07:02:44.404Z,993.65
2018-03-19T07:03:49.761Z,993.65
2018-03-19T07:04:55.717Z,993.68
2018-03-19T07:06:02.204Z,993.68
2018-03-19T07:07:08.196Z,993.67
2018-03-19T07:08:14.156Z,993.66
2018-03-19T07:09:19.627Z,993.71
2018-03-19T07:10:26.066Z,993.66
2018-03-19T07:11:31.558Z,993.68
2018-03-19T07:12:38.044Z,993.65
2018-03-19T07:13:43.999Z,993.60
2018-03-19T07:14:49.990Z,993.69
2018-03-19T07:15:55.476Z,993.68
2018-03-19T07:17:02.013Z,993.69
2018-03-19T07:18:07.971Z,993.71
2018-03-19T07:19:13.429Z,993.71
2018-03-19T07:20:20.028Z,993.66
2018-03-19T07:21:25.958Z,993.68
2018-03-19T07:22:31.997Z,993.68
2018-03-19T07:23:37.494Z,993.67
2018-03-19T07:24:43.399Z,993.70
2018-03-19T07:25:49.940Z,993.63
2018-03-19T07:26:55.975Z,993.65
2018-03-19T07:28:01.412Z,993.65
2018-03-19T07:29:07.957Z,993.63
2018-03-19T07:30:13.932Z,993.63
2018-03-19T07:31:19.454Z,993.63
2018-03-19T07:32:25.939Z,993.70
2018-03-19T07:33:31.952Z,993.63
2018-03-19T07:34:38.017Z,993.63
2018-03-19T07:35:43.977Z,993.65
2018-03-19T07:36:50.050Z,993.66
2018-03-19T07:37:55.989Z,993.66
2018-03-19T07:39:02.036Z,993.69
2018-03-19T07:40:07.979Z,993.70
2018-03-19T07:41:14.025Z,993.66
2018-03-19T07:42:20.005Z,993.67
2018-03-19T07:43:25.559Z,993.68
2018-03-19T07:44:32.096Z,993.69
2018-03-19T07:45:38.076Z,993.69
2018-03-19T07:46:44.094Z,993.67
2018-03-19T07:47:50.089Z,993.74
2018-03-19T07:48:56.173Z,993.68
2018-03-19T07:50:02.139Z,993.68
2018-03-19T07:51:08.245Z,993.67
2018-03-19T07:52:14.175Z,993.69
2018-03-19T07:53:20.165Z,993.67
2018-03-19T07:54:26.236Z,993.69
2018-03-19T07:55:32.240Z,993.70
2018-03-19T07:56:38.288Z,993.67
2018-03-19T07:57:44.273Z,993.71
2018-03-19T07:58:50.265Z,993.64
2018-03-19T07:59:56.344Z,993.67
2018-03-19T08:01:02.305Z,993.68
2018-03-19T08:02:08.314Z,993.68
2018-03-19T08:03:14.381Z,993.67
2018-03-19T08:04:20.398Z,993.67
2018-03-19T08:05:27.399Z,993.64
2018-03-19T08:06:32.440Z,993.67
2018-03-19T08:07:38.492Z,993.68
2018-03-19T08:08:44.553Z,993.70
2018-03-19T08:09:50.642Z,993.72
2018-03-19T08:10:56.570Z,993.69
2018-03-19T08:12:02.729Z,993.72
2018-03-19T08:13:08.718Z,993.74
2018-03-19T08:14:14.194Z,993.75
2018-03-19T08:15:20.749Z,993.78
2018-03-19T08:16:26.865Z,993.74
2018-03-19T08:17:32.862Z,993.72
2018-03-19T08:18:38.944Z,993.71
2018-03-19T08:19:44.949Z,993.72
2018-03-19T08:20:50.954Z,993.71
2018-03-19T08:21:56.984Z,993.74
2018-03-19T08:23:04.061Z,993.69
2018-03-19T08:24:09.060Z,993.65
2018-03-19T08:25:15.155Z,993.64
2018-03-19T08:26:21.203Z,993.64
2018-03-19T08:27:27.200Z,993.64
2018-03-19T08:28:33.274Z,993.68
2018-03-19T08:29:39.316Z,993.66
2018-03-19T08:30:45.416Z,993.65
2018-03-19T08:31:50.996Z,993.67
2018-03-19T08:32:57.477Z,993.59
2018-03-19T08:34:03.689Z,993.62
2018-03-19T08:36:15.712Z,993.64
2018-03-19T08:37:21.806Z,993.58
2018-03-19T08:38:27.933Z,993.59
2018-03-19T08:39:33.425Z,993.57
2018-03-19T08:40:40.048Z,993.55
2018-03-19T08:41:46.105Z,993.58
2018-03-19T08:42:51.692Z,993.54
2018-03-19T08:43:58.268Z,993.58
2018-03-19T08:45:04.383Z,993.54
2018-03-19T08:46:10.471Z,993.49
2018-03-19T08:47:16.547Z,993.48
2018-03-19T08:48:22.664Z,993.46
2018-03-19T08:49:28.810Z,993.48
2018-03-19T08:50:34.431Z,993.43
2018-03-19T08:51:40.990Z,993.41
2018-03-19T08:52:47.110Z,993.40
2018-03-19T08:53:53.251Z,993.46
2018-03-19T08:54:59.464Z,993.44
2018-03-19T08:56:05.520Z,993.43
2018-03-19T08:57:13.570Z,993.37
2018-03-19T08:58:17.725Z,993.37
2018-03-19T08:59:23.357Z,993.35
2018-03-19T09:00:30.007Z,993.38
2018-03-19T09:01:36.140Z,993.37
2018-03-19T09:02:42.223Z,993.39
2018-03-19T09:03:48.383Z,993.33
2018-03-19T09:04:54.001Z,993.36
2018-03-19T09:06:00.145Z,993.32
2018-03-19T09:07:06.296Z,993.30
2018-03-19T09:08:12.440Z,993.33
2018-03-19T09:09:18.563Z,993.27
2018-03-19T09:10:25.167Z,993.27
2018-03-19T09:11:31.304Z,993.25
2018-03-19T09:12:36.995Z,993.30
2018-03-19T09:13:43.597Z,993.34
2018-03-19T09:14:49.265Z,993.32
2018-03-19T09:15:55.397Z,993.33
2018-03-19T09:17:01.556Z,993.33
2018-03-19T09:18:08.166Z,993.39
2018-03-19T09:19:13.810Z,993.36
2018-03-19T09:20:20.457Z,993.35
2018-03-19T09:21:26.116Z,993.37
2018-03-19T09:22:32.271Z,993.34
2018-03-19T09:23:38.901Z,993.34
2018-03-19T09:24:45.039Z,993.27
2018-03-19T09:25:51.212Z,993.34
2018-03-19T09:26:57.367Z,993.31
2018-03-19T09:28:03.498Z,993.35
2018-03-19T09:29:09.688Z,993.34
2018-03-19T09:30:15.812Z,993.33
2018-03-19T09:31:21.965Z,993.35
2018-03-19T09:32:28.131Z,993.31
2018-03-19T09:33:34.260Z,993.34
2018-03-19T09:34:39.953Z,993.30
2018-03-19T09:35:46.554Z,993.37
2018-03-19T09:36:52.700Z,993.38
2018-03-19T09:37:58.383Z,993.33
2018-03-19T09:39:05.007Z,993.37
2018-03-19T09:40:11.138Z,993.42
2018-03-19T09:41:17.298Z,993.38
2018-03-19T09:42:23.455Z,993.36
2018-03-19T09:43:29.614Z,993.42
2018-03-19T09:44:35.725Z,993.38
2018-03-19T09:45:41.876Z,993.35
2018-03-19T09:46:49.002Z,993.37
2018-03-19T09:47:54.189Z,993.34
2018-03-19T09:48:59.822Z,993.37
2018-03-19T09:50:06.441Z,993.39
2018-03-19T09:51:12.087Z,993.41
2018-03-19T09:52:18.762Z,993.36
2018-03-19T09:53:24.964Z,993.38
2018-03-19T09:54:31.043Z,993.41
2018-03-19T09:55:37.204Z,993.40
2018-03-19T09:56:43.352Z,993.44
2018-03-19T09:57:48.994Z,993.41
2018-03-19T09:58:55.693Z,993.45
2018-03-19T10:00:01.800Z,993.43
2018-03-19T10:01:07.989Z,993.40
2018-03-19T10:02:14.131Z,993.37
2018-03-19T10:03:20.315Z,993.32
2018-03-19T10:04:26.477Z,993.32
2018-03-19T10:05:32.627Z,993.34
2018-03-19T10:06:38.960Z,993.32
2018-03-19T10:07:44.980Z,993.36
2018-03-19T10:08:51.181Z,993.38
2018-03-19T10:09:57.337Z,993.34
2018-03-19T10:11:03.505Z,993.40
2018-03-19T10:12:09.687Z,993.43
2018-03-19T10:13:15.878Z,993.39
2018-03-19T10:14:22.048Z,993.41
2018-03-19T10:15:27.768Z,993.38
2018-03-19T10:16:34.449Z,993.41
2018-03-19T10:17:40.085Z,993.37
2018-03-19T10:18:46.773Z,993.36
2018-03-19T10:19:52.933Z,993.40
2018-03-19T10:20:59.123Z,993.36
2018-03-19T10:22:04.801Z,993.35
2018-03-19T10:23:11.493Z,993.39
2018-03-19T10:24:17.717Z,993.37
2018-03-19T10:25:23.867Z,993.35
2018-03-19T10:26:30.088Z,993.35
2018-03-19T10:27:35.751Z,993.37
2018-03-19T10:28:42.427Z,993.28
2018-03-19T10:29:49.632Z,993.24
2018-03-19T10:30:55.279Z,993.28
2018-03-19T10:32:01.116Z,993.27
2018-03-19T10:33:07.319Z,993.29
2018-03-19T10:34:13.444Z,993.28
2018-03-19T10:35:19.567Z,993.28
2018-03-19T10:36:25.720Z,993.28
2018-03-19T10:37:31.912Z,993.26
2018-03-19T10:38:38.086Z,993.35
2018-03-19T10:39:44.297Z,993.35
2018-03-19T10:40:50.466Z,993.32
2018-03-19T10:41:56.639Z,993.31
2018-03-19T10:43:02.840Z,993.34
2018-03-19T10:44:09.057Z,993.35
2018-03-19T10:45:15.244Z,993.30
2018-03-19T10:46:21.448Z,993.29
2018-03-19T10:47:27.606Z,993.22
2018-03-19T10:48:33.859Z,993.18
2018-03-19T10:49:40.048Z,993.17
2018-03-19T10:50:46.221Z,993.25
2018-03-19T10:51:52.416Z,993.23
2018-03-19T10:52:58.618Z,993.21
2018-03-19T10:54:04.821Z,993.27
2018-03-19T10:55:11.064Z,993.24
2018-03-19T10:56:17.227Z,993.33
2018-03-19T10:57:23.437Z,993.31
2018-03-19T10:58:29.688Z,993.30
2018-03-19T10:59:35.882Z,993.33
2018-03-19T11:00:42.080Z,993.39
2018-03-19T11:01:48.267Z,993.42
2018-03-19T11:02:54.546Z,993.36
2018-03-19T11:04:00.691Z,993.40
2018-03-19T11:05:06.969Z,993.41
2018-03-19T11:06:12.620Z,993.38
2018-03-19T11:07:19.291Z,993.39
2018-03-19T11:08:25.495Z,993.38
2018-03-19T11:09:31.208Z,993.30
2018-03-19T11:10:37.925Z,993.32
2018-03-19T11:11:44.105Z,993.31
2018-03-19T11:12:50.351Z,993.30
2018-03-19T11:13:56.496Z,993.25
2018-03-19T11:15:02.734Z,993.30
2018-03-19T11:16:08.968Z,993.27
2018-03-19T11:17:15.122Z,993.34
2018-03-19T11:18:21.340Z,993.33
2018-03-19T11:19:27.524Z,993.35
2018-03-19T11:20:33.858Z,993.30
2018-03-19T11:21:39.958Z,993.28
2018-03-19T11:22:46.173Z,993.28
2018-03-19T11:23:52.373Z,993.33
2018-03-19T11:24:58.588Z,993.30
2018-03-19T11:26:04.825Z,993.23
2018-03-19T11:27:11.051Z,993.21
2018-03-19T11:28:17.230Z,993.22
2018-03-19T11:29:23.530Z,993.21
2018-03-19T11:30:29.668Z,993.22
2018-03-19T11:31:35.866Z,993.27
2018-03-19T11:32:42.063Z,993.18
2018-03-19T11:33:48.290Z,993.20
2018-03-19T11:34:54.498Z,993.25
2018-03-19T11:36:00.744Z,993.20
2018-03-19T11:37:07.039Z,993.27
2018-03-19T11:38:12.675Z,993.20
2018-03-19T11:39:19.496Z,993.22
2018-03-19T11:40:25.633Z,993.17
2018-03-19T11:41:31.918Z,993.15
2018-03-19T11:42:38.156Z,993.18
2018-03-19T11:43:44.406Z,993.18
2018-03-19T11:44:50.734Z,993.15
2018-03-19T11:45:56.974Z,993.21
2018-03-19T11:47:03.281Z,993.15
2018-03-19T11:48:09.563Z,993.20
2018-03-19T11:49:15.373Z,993.14
2018-03-19T11:50:22.321Z,993.17
2018-03-19T11:51:28.475Z,993.13
2018-03-19T11:52:35.123Z,993.13
2018-03-19T11:53:41.110Z,993.06
2018-03-19T11:54:46.937Z,993.06
2018-03-19T11:55:53.772Z,993.05
2018-03-19T11:57:00.144Z,993.06
2018-03-19T11:58:06.474Z,993.09
2018-03-19T11:59:12.830Z,993.08
2018-03-19T12:00:19.172Z,993.10
2018-03-19T12:01:25.543Z,993.10
2018-03-19T12:02:31.983Z,993.13
2018-03-19T12:03:38.344Z,993.12
2018-03-19T12:04:44.748Z,993.13
2018-03-19T12:05:51.194Z,993.11
2018-03-19T12:06:57.639Z,993.05
2018-03-19T12:08:04.389Z,993.00
2018-03-19T12:09:10.516Z,993.08
2018-03-19T12:10:16.970Z,993.12
2018-03-19T12:11:23.430Z,993.11
2018-03-19T12:12:29.912Z,993.17
2018-03-19T12:13:36.350Z,993.16
2018-03-19T12:14:43.801Z,993.07
2018-03-19T12:15:49.315Z,993.09
2018-03-19T12:16:55.745Z,993.10
2018-03-19T12:18:02.256Z,993.15
2018-03-19T12:19:08.665Z,993.14
2018-03-19T12:20:15.117Z,993.19
2018-03-19T12:21:21.570Z,993.12
2018-03-19T12:22:28.034Z,993.14
2018-03-19T12:23:34.534Z,993.13
2018-03-19T12:24:40.977Z,993.18
2018-03-19T12:25:47.459Z,993.11
2018-03-19T12:26:53.991Z,993.12
2018-03-19T12:28:00.462Z,993.11
2018-03-19T12:29:07.985Z,993.15
2018-03-19T12:30:13.458Z,993.11
2018-03-19T12:31:19.972Z,993.12
2018-03-19T12:32:26.471Z,993.07
2018-03-19T12:33:32.973Z,993.08
2018-03-19T12:34:39.454Z,993.06
2018-03-19T12:35:45.971Z,993.03
2018-03-19T12:36:52.447Z,993.03
2018-03-19T12:37:59.060Z,993.03
2018-03-19T12:39:05.485Z,993.04
2018-03-19T12:40:11.997Z,992.98
2018-03-19T12:41:18.523Z,993.08
2018-03-19T12:42:25.083Z,993.05
2018-03-19T12:43:31.635Z,993.05
2018-03-19T12:44:38.160Z,993.03
2018-03-19T12:45:44.710Z,993.05
2018-03-19T12:46:51.248Z,993.06
2018-03-19T12:47:57.809Z,993.07
2018-03-19T12:49:04.392Z,993.05
2018-03-19T12:50:10.968Z,993.03
2018-03-19T12:51:17.534Z,993.00
2018-03-19T12:52:24.091Z,992.95
2018-03-19T12:53:30.692Z,992.97
2018-03-19T12:54:37.377Z,992.99
2018-03-19T12:55:43.928Z,992.96
2018-03-19T12:56:50.530Z,992.94
2018-03-19T12:57:57.142Z,992.92
2018-03-19T12:59:03.839Z,992.92
2018-03-19T13:00:10.429Z,992.90
2018-03-19T13:01:17.065Z,992.90
2018-03-19T13:02:23.731Z,992.88
2018-03-19T13:03:30.349Z,992.93
2018-03-19T13:04:37.036Z,992.86
2018-03-19T13:05:43.701Z,992.90
2018-03-19T13:06:50.401Z,992.94
2018-03-19T13:07:57.133Z,992.86
2018-03-19T13:09:03.845Z,992.85
2018-03-19T13:10:10.601Z,992.90
2018-03-19T13:11:17.340Z,992.86
2018-03-19T13:12:24.060Z,992.82
2018-03-19T13:13:30.796Z,992.82
2018-03-19T13:14:37.595Z,992.85
2018-03-19T13:15:44.329Z,992.86
2018-03-19T13:16:51.077Z,992.88
2018-03-19T13:17:57.894Z,992.87
2018-03-19T13:19:04.606Z,992.94
2018-03-19T13:20:11.391Z,992.87
2018-03-19T13:21:18.159Z,992.86
2018-03-19T13:22:24.944Z,992.87
2018-03-19T13:23:31.706Z,992.86
2018-03-19T13:24:37.969Z,992.81
2018-03-19T13:25:45.230Z,992.82
2018-03-19T13:26:51.991Z,992.83
2018-03-19T13:27:58.756Z,992.84
2018-03-19T13:29:05.040Z,992.88
2018-03-19T13:30:12.306Z,992.87
2018-03-19T13:31:19.116Z,992.86
2018-03-19T13:32:25.833Z,992.84
2018-03-19T13:33:32.575Z,992.90
2018-03-19T13:34:39.317Z,992.90
2018-03-19T13:35:46.099Z,992.87
2018-03-19T13:36:52.817Z,992.88
2018-03-19T13:37:59.061Z,992.93
2018-03-19T13:39:06.293Z,993.00
2018-03-19T13:40:13.033Z,992.94
2018-03-19T13:41:19.758Z,992.94
2018-03-19T13:42:25.944Z,992.92
2018-03-19T13:43:33.128Z,992.94
2018-03-19T13:44:39.809Z,993.01
2018-03-19T13:45:46.671Z,992.94
2018-03-19T13:46:52.826Z,992.92
2018-03-19T13:47:59.802Z,992.93